sensor_id;sensor_type;location;lat;lon;timestamp;pressure;altitude;pressure_sealevel;temperature;humidity
29505;BME280;16452;54.174;12.092;2023-02-28T00:00:32;103094.56;;;5.59;91.21
29505;BME280;16452;54.174;12.092;2023-02-28T00:02:59;103103.19;;;5.58;90.85
29505;BME280;16452;54.174;12.092;2023-02-28T00:05:26;103099.75;;;5.58;90.05
29505;BME280;16452;54.174;12.092;2023-02-28T00:07:53;103103.03;;;5.34;91.44
29505;BME280;16452;54.174;12.092;2023-02-28T00:10:24;103094.53;;;5.55;91.36
29505;BME280;16452;54.174;12.092;2023-02-28T00:12:51;103098.78;;;5.45;90.70
29505;BME280;16452;54.174;12.092;2023-02-28T00:15:17;103102.28;;;5.47;90.19
29505;BME280;16452;54.174;12.092;2023-02-28T00:17:44;103105.66;;;5.40;90.61
29505;BME280;16452;54.174;12.092;2023-02-28T00:20:11;103105.69;;;5.46;90.85
29505;BME280;16452;54.174;12.092;2023-02-28T00:22:44;103097.78;;;5.23;91.78
29505;BME280;16452;54.174;12.092;2023-02-28T00:25:14;103104.91;;;5.53;90.85
29505;BME280;16452;54.174;12.092;2023-02-28T00:27:41;103095.41;;;5.52;90.12
29505;BME280;16452;54.174;12.092;2023-02-28T00:30:15;103096.13;;;5.34;90.35
29505;BME280;16452;54.174;12.092;2023-02-28T00:32:42;103093.50;;;5.27;90.75
29505;BME280;16452;54.174;12.092;2023-02-28T00:35:09;103096.94;;;5.27;91.46
29505;BME280;16452;54.174;12.092;2023-02-28T00:37:35;103093.63;;;5.48;90.24
29505;BME280;16452;54.174;12.092;2023-02-28T00:40:01;103096.19;;;5.44;90.05
29505;BME280;16452;54.174;12.092;2023-02-28T00:42:30;103096.22;;;5.47;90.14
29505;BME280;16452;54.174;12.092;2023-02-28T00:44:56;103099.72;;;5.53;90.67
29505;BME280;16452;54.174;12.092;2023-02-28T00:47:21;103101.41;;;5.51;90.78
29505;BME280;16452;54.174;12.092;2023-02-28T00:49:47;103103.09;;;5.48;90.76
29505;BME280;16452;54.174;12.092;2023-02-28T00:52:13;103102.22;;;5.41;91.37
29505;BME280;16452;54.174;12.092;2023-02-28T00:54:38;103105.63;;;5.37;90.61
29505;BME280;16452;54.174;12.092;2023-02-28T00:57:07;103099.66;;;5.44;91.01
29505;BME280;16452;54.174;12.092;2023-02-28T00:59:32;103103.00;;;5.29;91.49
29505;BME280;16452;54.174;12.092;2023-02-28T01:01:58;103107.22;;;5.20;93.69
29505;BME280;16452;54.174;12.092;2023-02-28T01:04:24;103106.13;;;4.92;94.69
29505;BME280;16452;54.174;12.092;2023-02-28T01:06:50;103104.28;;;4.79;95.76
29505;BME280;16452;54.174;12.092;2023-02-28T01:09:16;103106.94;;;4.89;95.89
29505;BME280;16452;54.174;12.092;2023-02-28T01:11:42;103100.91;;;4.86;97.04
29505;BME280;16452;54.174;12.092;2023-02-28T01:14:14;103112.94;;;4.82;96.38
29505;BME280;16452;54.174;12.092;2023-02-28T01:16:40;103098.00;;;4.55;97.77
29505;BME280;16452;54.174;12.092;2023-02-28T01:19:06;103106.47;;;4.41;98.91
29505;BME280;16452;54.174;12.092;2023-02-28T01:21:32;103109.09;;;4.48;98.44
29505;BME280;16452;54.174;12.092;2023-02-28T01:23:58;103116.91;;;4.51;99.02
29505;BME280;16452;54.174;12.092;2023-02-28T01:26:24;103115.84;;;4.34;99.58
29505;BME280;16452;54.174;12.092;2023-02-28T01:28:51;103120.66;;;4.05;100.00
29505;BME280;16452;54.174;12.092;2023-02-28T01:31:19;103116.50;;;4.17;100.00
29505;BME280;16452;54.174;12.092;2023-02-28T01:33:45;103111.22;;;4.09;100.00
29505;BME280;16452;54.174;12.092;2023-02-28T01:36:20;103114.00;;;4.23;100.00
29505;BME280;16452;54.174;12.092;2023-02-28T01:38:47;103114.09;;;4.32;100.00
29505;BME280;16452;54.174;12.092;2023-02-28T01:41:29;103108.59;;;4.04;100.00
29505;BME280;16452;54.174;12.092;2023-02-28T01:44:06;103120.69;;;4.07;100.00
29505;BME280;16452;54.174;12.092;2023-02-28T01:46:35;103113.66;;;3.95;100.00
29505;BME280;16452;54.174;12.092;2023-02-28T01:49:12;103113.88;;;4.13;100.00
29505;BME280;16452;54.174;12.092;2023-02-28T01:51:54;103113.06;;;4.18;100.00
29505;BME280;16452;54.174;12.092;2023-02-28T01:54:30;103112.03;;;4.03;100.00
29505;BME280;16452;54.174;12.092;2023-02-28T01:57:15;103106.94;;;4.09;100.00
29505;BME280;16452;54.174;12.092;2023-02-28T01:59:48;103109.13;;;3.79;100.00
29505;BME280;16452;54.174;12.092;2023-02-28T02:02:17;103102.88;;;3.62;100.00
29505;BME280;16452;54.174;12.092;2023-02-28T02:04:55;103099.81;;;3.89;100.00
29505;BME280;16452;54.174;12.092;2023-02-28T02:07:23;103107.63;;;3.96;100.00
29505;BME280;16452;54.174;12.092;2023-02-28T02:12:51;103108.19;;;3.74;100.00
29505;BME280;16452;54.174;12.092;2023-02-28T02:15:37;103104.88;;;3.81;100.00
29505;BME280;16452;54.174;12.092;2023-02-28T02:18:26;103099.50;;;3.66;100.00
29505;BME280;16452;54.174;12.092;2023-02-28T02:21:18;103096.72;;;3.52;100.00
29505;BME280;16452;54.174;12.092;2023-02-28T02:24:03;103100.78;;;3.38;100.00
29505;BME280;16452;54.174;12.092;2023-02-28T02:33:00;103108.41;;;3.32;100.00
29505;BME280;16452;54.174;12.092;2023-02-28T02:38:47;103105.16;;;3.42;100.00
29505;BME280;16452;54.174;12.092;2023-02-28T02:41:35;103105.97;;;3.40;100.00
29505;BME280;16452;54.174;12.092;2023-02-28T02:44:15;103110.28;;;3.41;100.00
29505;BME280;16452;54.174;12.092;2023-02-28T02:46:45;103113.41;;;3.21;100.00
29505;BME280;16452;54.174;12.092;2023-02-28T02:49:24;103113.66;;;3.38;100.00
29505;BME280;16452;54.174;12.092;2023-02-28T02:51:53;103107.53;;;3.28;100.00
29505;BME280;16452;54.174;12.092;2023-02-28T02:54:27;103107.44;;;3.24;100.00
29505;BME280;16452;54.174;12.092;2023-02-28T02:56:58;103110.63;;;3.09;100.00
29505;BME280;16452;54.174;12.092;2023-02-28T02:59:26;103120.84;;;3.05;100.00
29505;BME280;16452;54.174;12.092;2023-02-28T03:01:59;103118.31;;;3.06;100.00
29505;BME280;16452;54.174;12.092;2023-02-28T03:04:32;103113.16;;;3.06;100.00
29505;BME280;16452;54.174;12.092;2023-02-28T03:06:59;103120.59;;;2.89;100.00
29505;BME280;16452;54.174;12.092;2023-02-28T03:09:26;103119.31;;;3.16;100.00
29505;BME280;16452;54.174;12.092;2023-02-28T03:11:55;103110.63;;;3.09;100.00
29505;BME280;16452;54.174;12.092;2023-02-28T03:17:40;103111.41;;;3.04;100.00
29505;BME280;16452;54.174;12.092;2023-02-28T03:20:41;103114.28;;;3.22;100.00
29505;BME280;16452;54.174;12.092;2023-02-28T03:24:07;103113.56;;;3.30;100.00
29505;BME280;16452;54.174;12.092;2023-02-28T03:26:39;103108.56;;;3.41;100.00
29505;BME280;16452;54.174;12.092;2023-02-28T03:29:26;103109.09;;;3.19;100.00
29505;BME280;16452;54.174;12.092;2023-02-28T03:32:08;103115.88;;;3.14;100.00
29505;BME280;16452;54.174;12.092;2023-02-28T03:34:47;103100.44;;;3.15;100.00
29505;BME280;16452;54.174;12.092;2023-02-28T03:37:20;103106.81;;;3.39;100.00
29505;BME280;16452;54.174;12.092;2023-02-28T03:39:58;103105.16;;;3.42;99.91
29505;BME280;16452;54.174;12.092;2023-02-28T03:42:29;103106.44;;;3.16;100.00
29505;BME280;16452;54.174;12.092;2023-02-28T03:45:05;103105.31;;;3.53;99.92
29505;BME280;16452;54.174;12.092;2023-02-28T03:47:40;103109.81;;;3.12;100.00
29505;BME280;16452;54.174;12.092;2023-02-28T03:50:19;103108.66;;;3.46;99.55
29505;BME280;16452;54.174;12.092;2023-02-28T03:53:01;103109.63;;;3.54;97.98
29505;BME280;16452;54.174;12.092;2023-02-28T03:55:38;103107.75;;;3.44;97.65
29505;BME280;16452;54.174;12.092;2023-02-28T04:00:49;103106.63;;;3.25;97.40
29505;BME280;16452;54.174;12.092;2023-02-28T04:03:18;103108.78;;;3.01;98.27
29505;BME280;16452;54.174;12.092;2023-02-28T04:06:03;103115.00;;;3.15;97.97
29505;BME280;16452;54.174;12.092;2023-02-28T04:08:29;103115.88;;;3.15;98.39
29505;BME280;16452;54.174;12.092;2023-02-28T04:11:19;103110.16;;;3.32;98.42
29505;BME280;16452;54.174;12.092;2023-02-28T04:13:46;103113.25;;;3.11;99.12
29505;BME280;16452;54.174;12.092;2023-02-28T04:16:12;103111.81;;;3.28;98.20
29505;BME280;16452;54.174;12.092;2023-02-28T04:18:39;103120.47;;;3.32;98.00
29505;BME280;16452;54.174;12.092;2023-02-28T04:21:06;103117.00;;;3.33;96.19
29505;BME280;16452;54.174;12.092;2023-02-28T04:23:32;103125.13;;;3.03;98.21
29505;BME280;16452;54.174;12.092;2023-02-28T04:25:58;103126.84;;;3.02;98.81
29505;BME280;16452;54.174;12.092;2023-02-28T04:28:24;103129.41;;;3.02;99.09
29505;BME280;16452;54.174;12.092;2023-02-28T04:30:58;103128.69;;;3.11;99.13
29505;BME280;16452;54.174;12.092;2023-02-28T04:33:24;103136.31;;;3.05;98.48
29505;BME280;16452;54.174;12.092;2023-02-28T04:36:19;103133.25;;;3.25;98.98
29505;BME280;16452;54.174;12.092;2023-02-28T04:38:45;103135.22;;;2.91;98.81
29505;BME280;16452;54.174;12.092;2023-02-28T04:41:13;103131.59;;;2.79;100.00
29505;BME280;16452;54.174;12.092;2023-02-28T04:43:38;103124.66;;;2.77;99.58
29505;BME280;16452;54.174;12.092;2023-02-28T04:46:05;103120.19;;;2.67;100.00
29505;BME280;16452;54.174;12.092;2023-02-28T04:48:35;103135.91;;;2.82;100.00
29505;BME280;16452;54.174;12.092;2023-02-28T04:51:04;103127.56;;;2.95;99.68
29505;BME280;16452;54.174;12.092;2023-02-28T04:53:30;103132.72;;;2.48;100.00
29505;BME280;16452;54.174;12.092;2023-02-28T04:55:57;103127.91;;;2.68;100.00
29505;BME280;16452;54.174;12.092;2023-02-28T04:58:23;103127.25;;;2.77;100.00
29505;BME280;16452;54.174;12.092;2023-02-28T05:00:52;103127.03;;;2.66;99.75
29505;BME280;16452;54.174;12.092;2023-02-28T05:03:19;103129.44;;;2.57;100.00
29505;BME280;16452;54.174;12.092;2023-02-28T05:05:46;103133.38;;;2.83;100.00
29505;BME280;16452;54.174;12.092;2023-02-28T05:08:12;103122.22;;;2.38;100.00
29505;BME280;16452;54.174;12.092;2023-02-28T05:10:38;103141.41;;;2.57;100.00
29505;BME280;16452;54.174;12.092;2023-02-28T05:13:04;103139.72;;;2.56;100.00
29505;BME280;16452;54.174;12.092;2023-02-28T05:15:29;103137.25;;;2.62;100.00
29505;BME280;16452;54.174;12.092;2023-02-28T05:17:55;103136.63;;;2.30;100.00
29505;BME280;16452;54.174;12.092;2023-02-28T05:20:21;103138.13;;;2.20;100.00
29505;BME280;16452;54.174;12.092;2023-02-28T05:22:47;103137.66;;;2.39;100.00
29505;BME280;16452;54.174;12.092;2023-02-28T05:25:17;103136.81;;;2.40;100.00
29505;BME280;16452;54.174;12.092;2023-02-28T05:27:44;103137.03;;;2.50;100.00
29505;BME280;16452;54.174;12.092;2023-02-28T05:30:11;103133.91;;;2.66;100.00
29505;BME280;16452;54.174;12.092;2023-02-28T05:32:38;103136.50;;;2.24;100.00
29505;BME280;16452;54.174;12.092;2023-02-28T05:35:05;103133.25;;;2.34;100.00
29505;BME280;16452;54.174;12.092;2023-02-28T05:37:31;103147.03;;;2.36;100.00
29505;BME280;16452;54.174;12.092;2023-02-28T05:39:57;103141.75;;;2.30;100.00
29505;BME280;16452;54.174;12.092;2023-02-28T05:42:22;103139.06;;;2.24;100.00
29505;BME280;16452;54.174;12.092;2023-02-28T05:44:48;103137.66;;;2.38;100.00
29505;BME280;16452;54.174;12.092;2023-02-28T05:47:14;103142.78;;;2.38;100.00
29505;BME280;16452;54.174;12.092;2023-02-28T05:49:41;103139.94;;;2.24;100.00
29505;BME280;16452;54.174;12.092;2023-02-28T05:52:07;103145.72;;;2.14;100.00
29505;BME280;16452;54.174;12.092;2023-02-28T05:54:33;103135.81;;;2.34;100.00
29505;BME280;16452;54.174;12.092;2023-02-28T05:56:59;103141.72;;;2.27;100.00
29505;BME280;16452;54.174;12.092;2023-02-28T05:59:25;103135.44;;;2.56;100.00
29505;BME280;16452;54.174;12.092;2023-02-28T06:01:51;103141.59;;;2.22;100.00
29505;BME280;16452;54.174;12.092;2023-02-28T06:04:20;103139.06;;;2.24;100.00
29505;BME280;16452;54.174;12.092;2023-02-28T06:06:47;103139.22;;;2.31;100.00
29505;BME280;16452;54.174;12.092;2023-02-28T06:09:13;103141.50;;;2.60;100.00
29505;BME280;16452;54.174;12.092;2023-02-28T06:11:39;103146.03;;;2.74;100.00
29505;BME280;16452;54.174;12.092;2023-02-28T06:14:06;103141.00;;;2.79;100.00
29505;BME280;16452;54.174;12.092;2023-02-28T06:16:34;103143.88;;;2.96;100.00
29505;BME280;16452;54.174;12.092;2023-02-28T06:19:03;103142.91;;;2.89;100.00
29505;BME280;16452;54.174;12.092;2023-02-28T06:21:29;103142.91;;;2.89;100.00
29505;BME280;16452;54.174;12.092;2023-02-28T06:23:56;103144.41;;;2.78;100.00
29505;BME280;16452;54.174;12.092;2023-02-28T06:26:22;103147.06;;;2.82;100.00
29505;BME280;16452;54.174;12.092;2023-02-28T06:28:48;103154.81;;;2.85;100.00
29505;BME280;16452;54.174;12.092;2023-02-28T06:31:17;103151.31;;;2.79;100.00
29505;BME280;16452;54.174;12.092;2023-02-28T06:33:44;103156.59;;;2.88;100.00
29505;BME280;16452;54.174;12.092;2023-02-28T06:36:11;103154.00;;;2.85;100.00
29505;BME280;16452;54.174;12.092;2023-02-28T06:38:39;103156.34;;;2.73;100.00
29505;BME280;16452;54.174;12.092;2023-02-28T06:41:05;103151.03;;;2.65;100.00
29505;BME280;16452;54.174;12.092;2023-02-28T06:43:35;103169.25;;;2.76;100.00
29505;BME280;16452;54.174;12.092;2023-02-28T06:46:04;103158.03;;;2.72;100.00
29505;BME280;16452;54.174;12.092;2023-02-28T06:48:30;103167.97;;;2.99;100.00
29505;BME280;16452;54.174;12.092;2023-02-28T06:51:10;103164.69;;;3.09;100.00
29505;BME280;16452;54.174;12.092;2023-02-28T06:53:36;103166.19;;;2.95;100.00
29505;BME280;16452;54.174;12.092;2023-02-28T06:56:08;103167.38;;;3.14;100.00
29505;BME280;16452;54.174;12.092;2023-02-28T06:58:35;103165.75;;;3.19;100.00
29505;BME280;16452;54.174;12.092;2023-02-28T07:01:01;103165.94;;;3.31;100.00
29505;BME280;16452;54.174;12.092;2023-02-28T07:03:27;103172.09;;;3.41;99.72
29505;BME280;16452;54.174;12.092;2023-02-28T07:05:53;103178.00;;;3.34;100.00
29505;BME280;16452;54.174;12.092;2023-02-28T07:08:19;103178.16;;;3.43;100.00
29505;BME280;16452;54.174;12.092;2023-02-28T07:10:44;103190.03;;;3.35;100.00
29505;BME280;16452;54.174;12.092;2023-02-28T07:13:11;103179.81;;;3.38;100.00
29505;BME280;16452;54.174;12.092;2023-02-28T07:15:37;103191.81;;;3.39;100.00
29505;BME280;16452;54.174;12.092;2023-02-28T07:18:03;103184.69;;;3.22;100.00
29505;BME280;16452;54.174;12.092;2023-02-28T07:20:29;103191.16;;;3.50;100.00
29505;BME280;16452;54.174;12.092;2023-02-28T07:22:55;103197.97;;;3.47;100.00
29505;BME280;16452;54.174;12.092;2023-02-28T07:25:28;103193.78;;;3.53;100.00
29505;BME280;16452;54.174;12.092;2023-02-28T07:27:55;103191.31;;;3.59;98.99
29505;BME280;16452;54.174;12.092;2023-02-28T07:30:22;103188.09;;;3.74;98.00
29505;BME280;16452;54.174;12.092;2023-02-28T07:32:47;103197.34;;;3.60;96.77
29505;BME280;16452;54.174;12.092;2023-02-28T07:35:14;103194.75;;;3.61;96.78
29505;BME280;16452;54.174;12.092;2023-02-28T07:37:41;103190.63;;;3.71;96.31
29505;BME280;16452;54.174;12.092;2023-02-28T07:40:11;103190.72;;;3.79;95.51
29505;BME280;16452;54.174;12.092;2023-02-28T07:42:37;103189.75;;;3.69;95.23
29505;BME280;16452;54.174;12.092;2023-02-28T07:45:04;103197.00;;;3.94;95.11
29505;BME280;16452;54.174;12.092;2023-02-28T07:47:30;103195.34;;;3.99;94.71
29505;BME280;16452;54.174;12.092;2023-02-28T07:49:57;103193.13;;;4.24;93.44
29505;BME280;16452;54.174;12.092;2023-02-28T07:52:24;103187.16;;;4.28;93.20
29505;BME280;16452;54.174;12.092;2023-02-28T07:54:50;103187.31;;;4.41;92.18
29505;BME280;16452;54.174;12.092;2023-02-28T07:57:16;103188.16;;;4.40;91.56
29505;BME280;16452;54.174;12.092;2023-02-28T07:59:42;103180.56;;;4.51;90.89
29505;BME280;16452;54.174;12.092;2023-02-28T08:02:16;103185.88;;;4.63;90.24
29505;BME280;16452;54.174;12.092;2023-02-28T08:04:42;103188.19;;;4.43;90.35
29505;BME280;16452;54.174;12.092;2023-02-28T08:07:17;103191.94;;;4.68;91.06
29505;BME280;16452;54.174;12.092;2023-02-28T08:09:44;103186.84;;;4.74;89.81
29505;BME280;16452;54.174;12.092;2023-02-28T08:12:10;103180.94;;;4.86;89.61
29505;BME280;16452;54.174;12.092;2023-02-28T08:14:37;103189.56;;;4.86;89.28
29505;BME280;16452;54.174;12.092;2023-02-28T08:17:03;103191.28;;;4.86;89.11
29505;BME280;16452;54.174;12.092;2023-02-28T08:19:30;103189.91;;;5.21;88.35
29505;BME280;16452;54.174;12.092;2023-02-28T08:21:57;103188.09;;;5.13;87.40
29505;BME280;16452;54.174;12.092;2023-02-28T08:24:24;103196.03;;;5.29;87.64
29505;BME280;16452;54.174;12.092;2023-02-28T08:26:50;103189.25;;;5.44;87.56
29505;BME280;16452;54.174;12.092;2023-02-28T08:29:16;103189.28;;;5.47;86.73
29505;BME280;16452;54.174;12.092;2023-02-28T08:31:46;103188.44;;;5.51;86.62
29505;BME280;16452;54.174;12.092;2023-02-28T08:34:15;103185.13;;;5.68;85.85
29505;BME280;16452;54.174;12.092;2023-02-28T08:36:42;103191.16;;;5.67;85.58
29505;BME280;16452;54.174;12.092;2023-02-28T08:39:10;103198.94;;;5.72;85.13
29505;BME280;16452;54.174;12.092;2023-02-28T08:41:36;103189.47;;;5.77;85.85
29505;BME280;16452;54.174;12.092;2023-02-28T08:44:02;103193.94;;;5.90;85.16
29505;BME280;16452;54.174;12.092;2023-02-28T08:46:28;103191.38;;;5.96;85.10
29505;BME280;16452;54.174;12.092;2023-02-28T08:48:56;103193.19;;;6.12;85.03
29505;BME280;16452;54.174;12.092;2023-02-28T08:51:24;103191.53;;;6.22;84.03
29505;BME280;16452;54.174;12.092;2023-02-28T08:53:55;103199.31;;;6.27;83.25
29505;BME280;16452;54.174;12.092;2023-02-28T08:56:22;103184.69;;;6.41;84.23
29505;BME280;16452;54.174;12.092;2023-02-28T08:58:49;103186.44;;;6.43;82.71
29505;BME280;16452;54.174;12.092;2023-02-28T09:01:17;103183.06;;;6.61;83.09
29505;BME280;16452;54.174;12.092;2023-02-28T09:03:45;103177.06;;;6.70;82.73
29505;BME280;16452;54.174;12.092;2023-02-28T09:06:13;103170.97;;;6.62;83.06
29505;BME280;16452;54.174;12.092;2023-02-28T09:08:40;103168.47;;;6.86;82.04
29505;BME280;16452;54.174;12.092;2023-02-28T09:11:07;103168.50;;;7.13;81.44
29505;BME280;16452;54.174;12.092;2023-02-28T09:13:34;103172.84;;;7.32;79.86
29505;BME280;16452;54.174;12.092;2023-02-28T09:16:05;103167.66;;;7.45;78.51
29505;BME280;16452;54.174;12.092;2023-02-28T09:18:34;103172.84;;;7.45;76.80
29505;BME280;16452;54.174;12.092;2023-02-28T09:21:05;103170.25;;;7.38;78.06
29505;BME280;16452;54.174;12.092;2023-02-28T09:23:34;103176.28;;;7.50;77.82
29505;BME280;16452;54.174;12.092;2023-02-28T09:26:00;103180.63;;;7.32;79.04
29505;BME280;16452;54.174;12.092;2023-02-28T09:28:26;103184.06;;;7.50;78.97
29505;BME280;16452;54.174;12.092;2023-02-28T09:30:53;103178.84;;;7.65;77.61
29505;BME280;16452;54.174;12.092;2023-02-28T09:33:21;103187.50;;;7.76;76.69
29505;BME280;16452;54.174;12.092;2023-02-28T09:35:48;103181.44;;;7.63;76.89
29505;BME280;16452;54.174;12.092;2023-02-28T09:38:15;103180.63;;;7.57;78.27
29505;BME280;16452;54.174;12.092;2023-02-28T09:40:52;103184.06;;;7.54;77.10
29505;BME280;16452;54.174;12.092;2023-02-28T09:43:22;103183.19;;;7.60;75.92
29505;BME280;16452;54.174;12.092;2023-02-28T09:48:47;103189.22;;;7.81;73.45
29505;BME280;16452;54.174;12.092;2023-02-28T09:51:33;103190.97;;;7.73;71.22
29505;BME280;16452;54.174;12.092;2023-02-28T09:54:00;103199.56;;;8.03;69.52
29505;BME280;16452;54.174;12.092;2023-02-28T09:56:37;103196.16;;;7.78;68.74
29505;BME280;16452;54.174;12.092;2023-02-28T09:59:42;103197.00;;;7.59;68.95
29505;BME280;16452;54.174;12.092;2023-02-28T10:05:27;103201.34;;;7.72;72.51
29505;BME280;16452;54.174;12.092;2023-02-28T10:08:18;103206.56;;;7.51;73.68
29505;BME280;16452;54.174;12.092;2023-02-28T10:10:57;103208.28;;;7.44;72.04
29505;BME280;16452;54.174;12.092;2023-02-28T10:13:50;103201.34;;;7.55;74.15
29505;BME280;16452;54.174;12.092;2023-02-28T10:22:25;103200.44;;;7.96;78.79
29505;BME280;16452;54.174;12.092;2023-02-28T10:24:55;103198.75;;;7.64;78.27
29505;BME280;16452;54.174;12.092;2023-02-28T10:27:31;103198.72;;;7.17;80.69
29505;BME280;16452;54.174;12.092;2023-02-28T10:30:00;103196.16;;;7.26;80.93
29505;BME280;16452;54.174;12.092;2023-02-28T10:32:32;103192.69;;;7.29;79.94
29505;BME280;16452;54.174;12.092;2023-02-28T10:35:19;103190.97;;;7.55;78.92
29505;BME280;16452;54.174;12.092;2023-02-28T10:37:53;103185.78;;;7.46;79.28
29505;BME280;16452;54.174;12.092;2023-02-28T10:43:05;103187.53;;;7.49;80.58
29505;BME280;16452;54.174;12.092;2023-02-28T10:45:34;103186.66;;;7.33;80.68
29505;BME280;16452;54.174;12.092;2023-02-28T10:48:05;103194.44;;;7.33;80.25
29505;BME280;16452;54.174;12.092;2023-02-28T10:50:44;103193.56;;;7.29;78.61
29505;BME280;16452;54.174;12.092;2023-02-28T10:53:22;103192.69;;;7.26;77.75
29505;BME280;16452;54.174;12.092;2023-02-28T10:58:59;103196.19;;;7.45;73.38
29505;BME280;16452;54.174;12.092;2023-02-28T11:04:01;103201.38;;;7.45;72.95
29505;BME280;16452;54.174;12.092;2023-02-28T11:06:33;103194.41;;;7.57;72.42
29505;BME280;16452;54.174;12.092;2023-02-28T11:09:15;103190.97;;;7.46;70.17
29505;BME280;16452;54.174;12.092;2023-02-28T11:11:46;103185.78;;;7.48;70.01
29505;BME280;16452;54.174;12.092;2023-02-28T11:14:31;103184.94;;;7.32;68.34
29505;BME280;16452;54.174;12.092;2023-02-28T11:17:18;103184.91;;;7.35;67.08
29505;BME280;16452;54.174;12.092;2023-02-28T11:19:50;103190.97;;;7.43;67.81
29505;BME280;16452;54.174;12.092;2023-02-28T11:22:23;103180.63;;;7.57;65.17
29505;BME280;16452;54.174;12.092;2023-02-28T11:24:53;103168.50;;;7.62;66.01
29505;BME280;16452;54.174;12.092;2023-02-28T11:29:55;103177.13;;;7.77;64.51
29505;BME280;16452;54.174;12.092;2023-02-28T11:32:29;103174.50;;;7.82;65.10
29505;BME280;16452;54.174;12.092;2023-02-28T11:35:14;103173.69;;;7.54;66.44
29505;BME280;16452;54.174;12.092;2023-02-28T11:37:43;103176.25;;;7.63;68.73
29505;BME280;16452;54.174;12.092;2023-02-28T11:40:17;103177.13;;;7.59;68.39
29505;BME280;16452;54.174;12.092;2023-02-28T11:48:39;103169.34;;;7.73;63.90
29505;BME280;16452;54.174;12.092;2023-02-28T11:51:25;103160.72;;;7.68;65.41
29505;BME280;16452;54.174;12.092;2023-02-28T11:54:35;103156.38;;;7.71;67.24
29505;BME280;16452;54.174;12.092;2023-02-28T12:05:45;103133.03;;;7.71;70.48
29505;BME280;16452;54.174;12.092;2023-02-28T12:20:29;103123.47;;;7.92;69.49
29505;BME280;16452;54.174;12.092;2023-02-28T12:23:39;103128.63;;;7.96;75.39
29505;BME280;16452;54.174;12.092;2023-02-28T12:26:19;103130.38;;;7.94;78.42
29505;BME280;16452;54.174;12.092;2023-02-28T12:29:04;103126.97;;;7.65;79.78
29505;BME280;16452;54.174;12.092;2023-02-28T12:31:42;103121.81;;;7.62;81.07
29505;BME280;16452;54.174;12.092;2023-02-28T12:34:17;103125.25;;;7.59;80.80
29505;BME280;16452;54.174;12.092;2023-02-28T12:36:45;103121.84;;;7.51;82.89
29505;BME280;16452;54.174;12.092;2023-02-28T12:39:36;103124.41;;;7.28;86.13
29505;BME280;16452;54.174;12.092;2023-02-28T12:42:22;103116.66;;;7.27;84.54
29505;BME280;16452;54.174;12.092;2023-02-28T12:45:02;103109.72;;;7.46;83.81
29505;BME280;16452;54.174;12.092;2023-02-28T12:47:30;103115.75;;;7.46;84.48
29505;BME280;16452;54.174;12.092;2023-02-28T12:50:02;103111.50;;;7.10;81.94
29505;BME280;16452;54.174;12.092;2023-02-28T12:58:52;103109.72;;;7.41;77.52
29505;BME280;16452;54.174;12.092;2023-02-28T13:04:43;103111.41;;;7.57;78.52
29505;BME280;16452;54.174;12.092;2023-02-28T13:10:05;103112.31;;;7.44;76.27
29505;BME280;16452;54.174;12.092;2023-02-28T13:12:34;103110.59;;;7.43;76.83
29505;BME280;16452;54.174;12.092;2023-02-28T13:17:39;103115.75;;;7.55;75.63
29505;BME280;16452;54.174;12.092;2023-02-28T13:22:53;103122.69;;;7.62;75.00
29505;BME280;16452;54.174;12.092;2023-02-28T13:27:55;103126.13;;;7.66;75.51
29505;BME280;16452;54.174;12.092;2023-02-28T13:33:36;103116.59;;;7.63;75.93
29505;BME280;16452;54.174;12.092;2023-02-28T13:36:26;103114.91;;;7.44;77.92
29505;BME280;16452;54.174;12.092;2023-02-28T13:39:03;103116.56;;;7.75;77.88
29505;BME280;16452;54.174;12.092;2023-02-28T13:41:47;103110.44;;;8.02;76.08
29505;BME280;16452;54.174;12.092;2023-02-28T13:44:22;103102.63;;;8.14;74.95
29505;BME280;16452;54.174;12.092;2023-02-28T13:54:58;103101.84;;;7.87;77.45
29505;BME280;16452;54.174;12.092;2023-02-28T13:58:02;103096.72;;;7.74;80.44
29505;BME280;16452;54.174;12.092;2023-02-28T14:08:59;103081.97;;;7.82;75.38
29505;BME280;16452;54.174;12.092;2023-02-28T14:11:44;103076.78;;;7.84;74.60
29505;BME280;16452;54.174;12.092;2023-02-28T14:17:03;103064.72;;;7.63;78.26
29505;BME280;16452;54.174;12.092;2023-02-28T14:19:31;103064.69;;;7.71;78.98
29505;BME280;16452;54.174;12.092;2023-02-28T14:25:32;103056.88;;;7.84;76.29
29505;BME280;16452;54.174;12.092;2023-02-28T14:28:17;103052.63;;;7.67;77.36
29505;BME280;16452;54.174;12.092;2023-02-28T14:36:31;103045.75;;;7.57;74.95
29505;BME280;16452;54.174;12.092;2023-02-28T14:39:05;103043.16;;;7.46;74.77
29505;BME280;16452;54.174;12.092;2023-02-28T14:41:37;103027.59;;;7.57;75.26
29505;BME280;16452;54.174;12.092;2023-02-28T14:44:27;103031.84;;;7.70;73.36
29505;BME280;16452;54.174;12.092;2023-02-28T14:47:01;103039.59;;;7.76;74.79
29505;BME280;16452;54.174;12.092;2023-02-28T14:49:44;103036.19;;;7.74;76.65
29505;BME280;16452;54.174;12.092;2023-02-28T14:52:28;103028.41;;;7.65;76.26
29505;BME280;16452;54.174;12.092;2023-02-28T14:55:06;103029.28;;;7.67;76.21
29505;BME280;16452;54.174;12.092;2023-02-28T14:57:51;103033.56;;;7.71;75.95
29505;BME280;16452;54.174;12.092;2023-02-28T15:00:27;103031.88;;;7.59;75.61
29505;BME280;16452;54.174;12.092;2023-02-28T15:02:59;103027.56;;;7.63;76.92
29505;BME280;16452;54.174;12.092;2023-02-28T15:05:30;103030.16;;;7.58;77.56
29505;BME280;16452;54.174;12.092;2023-02-28T15:08:15;103026.66;;;7.73;76.77